Data for 06/10/2008

Time Sea-Level Adjusted Pressure Absolute Pressure Temperature Relative Humidity Dew Point   
(mb) (inHg) (mb) (inHg) (C) (F) (%) (C) (F)
00:05 1010 29.83 840 24.81 10.2 50.3 76 6.2 43.2
00:10 1010 29.83 839 24.78 9.9 49.9 79 6.4 43.5
00:15 1010 29.83 839 24.78 9.5 49.1 81 6.5 43.7
00:20 1010 29.83 839 24.78 9.3 48.8 82 6.4 43.5
00:25 1010 29.83 839 24.78 9.4 48.9 81 6.3 43.4
00:30 1010 29.83 839 24.78 9.5 49 81 6.4 43.5
00:35 1010 29.83 839 24.78 9.5 49.1 82 6.5 43.8
00:40 1010 29.83 839 24.78 9.4 49 82 6.6 43.9
00:45 1010 29.83 839 24.78 9.4 48.8 83 6.6 43.9
00:50 1010 29.83 839 24.78 9.3 48.7 83 6.6 43.8
00:55 1010 29.83 839 24.78 9.2 48.5 84 6.6 43.8
01:00 1010 29.83 839 24.78 9.1 48.3 84 6.5 43.7
01:05 1009 29.8 839 24.78 9 48.1 84 6.5 43.7
01:10 1009 29.8 839 24.78 9 48.1 84 6.5 43.7
01:15 1009 29.8 839 24.78 8.9 48.1 85 6.5 43.7
01:20 1009 29.8 838 24.75 8.9 47.9 85 6.5 43.7
01:25 1009 29.8 838 24.75 8.8 47.9 85 6.4 43.6
01:30 1009 29.8 838 24.75 8.8 47.8 85 6.4 43.5
01:35 1009 29.8 838 24.75 8.8 47.8 85 6.4 43.5
01:40 1009 29.8 838 24.75 8.7 47.7 85 6.3 43.4
01:45 1009 29.8 838 24.75 8.8 47.8 84 6.3 43.4
01:50 1009 29.8 838 24.75 8.8 47.9 84 6.3 43.4
01:55 1009 29.8 839 24.78 8.8 47.8 85 6.4 43.5
02:00 1010 29.83 839 24.78 8.7 47.7 87 6.7 44.1
02:05 1009 29.8 839 24.78 8.2 46.7 91 6.8 44.3
02:10 1010 29.83 839 24.78 7.9 46.1 93 6.8 44.3
02:15 1010 29.83 839 24.78 7.6 45.7 95 6.8 44.3
02:20 1010 29.83 839 24.78 7.5 45.5 96 6.9 44.4
02:25 1010 29.83 839 24.78 7.5 45.4 96 6.9 44.4
02:30 1010 29.83 839 24.78 7.5 45.5 96 6.9 44.4
02:35 1010 29.83 839 24.78 7.5 45.5 94 6.7 44
02:40 1010 29.83 839 24.78 7.4 45.3 94 6.4 43.6
02:45 1010 29.83 839 24.78 7.1 44.8 94 6.3 43.3
02:50 1010 29.83 839 24.78 7 44.6 95 6.3 43.4
02:55 1010 29.83 839 24.78 7.1 44.8 95 6.4 43.5
03:00 1010 29.83 839 24.78 7.2 44.9 96 6.5 43.7
03:05 1010 29.83 839 24.78 7.4 45.2 96 6.7 44.1
03:10 1010 29.83 839 24.78 7.5 45.4 95 6.8 44.2
03:15 1010 29.83 839 24.78 7.4 45.3 95 6.7 44
03:20 1010 29.83 839 24.78 7.3 45.1 95 6.6 43.9
03:25 1010 29.83 839 24.78 7.2 44.9 96 6.5 43.8
03:30 1010 29.83 839 24.78 7.3 45.1 96 6.7 44.1
03:35 1010 29.83 839 24.78 7.4 45.4 96 6.9 44.4
03:40 1010 29.83 839 24.78 7.6 45.6 96 7 44.7
03:45 1010 29.83 839 24.78 7.7 45.8 96 7.2 44.9
03:50 1010 29.83 839 24.78 7.8 46 96 7.2 45
03:55 1010 29.83 839 24.78 7.8 46.1 96 7.3 45.1
04:00 1010 29.83 839 24.78 7.8 46 97 7.3 45.1
04:05 1010 29.83 839 24.78 7.8 46 96 7.2 45
04:10 1009 29.8 839 24.78 7.8 46 96 7.2 45
04:15 1009 29.8 839 24.78 7.7 45.9 97 7.2 45
04:20 1009 29.8 839 24.78 7.6 45.7 97 7.1 44.8
04:25 1009 29.8 839 24.78 7.6 45.7 97 7.1 44.8
04:30 1009 29.8 838 24.75 7.6 45.7 97 7.1 44.9
04:35 1009 29.8 838 24.75 7.5 45.5 97 7.1 44.7
04:40 1009 29.8 838 24.75 7.4 45.3 98 7 44.6
04:45 1009 29.8 838 24.75 7.4 45.3 98 7 44.6
04:50 1009 29.8 838 24.75 7.3 45.2 98 7 44.6
04:55 1009 29.8 838 24.75 7.3 45.1 98 7 44.6
05:00 1009 29.8 838 24.75 7.3 45.1 98 7 44.5
05:05 1009 29.8 838 24.75 7.3 45.1 98 7 44.6
05:10 1009 29.8 838 24.75 7.3 45.1 98 7 44.6
05:15 1009 29.8 838 24.75 7.2 45 98 7 44.5
05:20 1009 29.8 838 24.75 7.2 45 98 7 44.5
05:25 1009 29.8 838 24.75 7.1 44.8 98 6.8 44.3
05:30 1009 29.8 838 24.75 6.9 44.4 99 6.7 44.1
05:35 1009 29.8 838 24.75 6.9 44.4 99 6.7 44.1
05:40 1009 29.8 838 24.75 6.9 44.5 99 6.8 44.2
05:45 1009 29.8 838 24.75 6.9 44.3 99 6.7 44.1
05:50 1009 29.8 838 24.75 6.9 44.3 99 6.7 44.1
05:55 1009 29.8 838 24.75 7 44.5 99 6.8 44.3
06:00 1009 29.8 838 24.75 6.8 44.2 99 6.7 44
06:05 1009 29.8 838 24.75 6.6 43.9 100 6.6 43.8
06:10 1009 29.8 838 24.75 6.5 43.7 100 6.5 43.7
06:15 1009 29.8 838 24.75 6.6 43.9 100 6.6 43.9
06:20 1008 29.77 838 24.75 6.9 44.3 100 6.8 44.2
06:25 1008 29.77 838 24.75 7.1 44.7 99 6.9 44.5
06:30 1008 29.77 838 24.75 7.3 45.1 99 7.1 44.8
06:35 1008 29.77 838 24.75 7.4 45.2 98 7.1 44.8
06:40 1008 29.77 838 24.75 7.4 45.3 98 7.1 44.8
06:45 1009 29.8 838 24.75 7.5 45.5 98 7.2 44.9
06:50 1008 29.77 838 24.75 7.7 45.8 97 7.2 45
06:55 1009 29.8 838 24.75 7.8 46 97 7.3 45.2
07:00 1008 29.77 838 24.75 7.9 46.1 96 7.3 45.2
07:05 1008 29.77 838 24.75 7.9 46.2 96 7.3 45.1
07:10 1008 29.77 838 24.75 8 46.4 96 7.4 45.3
07:15 1008 29.77 838 24.75 8.1 46.5 96 7.5 45.5
07:20 1008 29.77 837 24.72 8.3 46.9 95 7.6 45.6
07:25 1008 29.77 837 24.72 8.5 47.3 94 7.7 45.8
07:30 1008 29.77 837 24.72 8.7 47.6 94 7.8 46
07:35 1008 29.77 837 24.72 8.9 48 92 7.7 45.9
07:40 1008 29.77 837 24.72 9 48.2 90 7.5 45.5
07:45 1008 29.77 837 24.72 9 48.2 89 7.3 45.1
07:50 1008 29.77 837 24.72 9.3 48.7 87 7.2 45
07:55 1008 29.77 837 24.72 9.5 49.2 85 7.2 45
08:00 1008 29.77 837 24.72 9.9 49.9 83 7.2 45
08:05 1008 29.77 837 24.72 10.5 50.8 80 7.2 45
08:10 1007 29.74 837 24.72 10.4 50.8 81 7.2 45
08:15 1007 29.74 837 24.72 10.4 50.8 80 7.2 45
08:20 1007 29.74 837 24.72 10.2 50.3 80 6.8 44.2
08:25 1007 29.74 837 24.72 10.3 50.5 78 6.7 44.1
08:30 1007 29.74 836 24.69 10.7 51.2 76 6.7 44
08:35 1007 29.74 836 24.69 10.8 51.5 76 6.7 44.1
08:40 1007 29.74 836 24.69 11 51.8 75 6.8 44.2
08:45 1007 29.74 836 24.69 11.2 52.1 74 6.7 44.1
08:50 1007 29.74 836 24.69 11.3 52.3 74 6.8 44.2
08:55 1007 29.74 836 24.69 11.7 53 72 6.8 44.3
09:00 1007 29.74 836 24.69 11.6 52.9 71 6.6 43.9
09:05 1006 29.71 836 24.69 12 53.5 70 6.7 44.1
09:10 1006 29.71 836 24.69 12.1 53.8 69 6.7 44
09:15 1006 29.71 835 24.66 12.4 54.3 68 6.6 43.9
09:20 1006 29.71 835 24.66 12.4 54.2 68 6.6 43.9
09:25 1006 29.71 835 24.66 12.7 54.9 66 6.7 44
09:30 1006 29.71 835 24.66 12.9 55.3 66 6.9 44.4
09:35 1006 29.71 835 24.66 13.1 55.6 65 6.8 44.2
09:40 1006 29.71 835 24.66 13.4 56.2 63 6.7 44
09:45 1006 29.71 835 24.66 13.4 56.1 63 6.6 43.9
09:50 1006 29.71 835 24.66 13.9 57 60 6.4 43.5
09:55 1006 29.71 835 24.66 14.3 57.7 59 6.5 43.7
10:00 1005 29.68 835 24.66 14.1 57.4 58 6 42.9
10:05 1005 29.68 835 24.66 14.6 58.3 57 6.2 43.1
10:10 1005 29.68 835 24.66 14.7 58.5 56 6.2 43.1
10:15 1005 29.68 835 24.66 14.7 58.4 59 6.9 44.5
10:20 1005 29.68 834 24.63 14.9 58.8 59 7 44.6
10:25 1005 29.68 834 24.63 14.7 58.5 60 7.2 44.9
10:30 1005 29.68 834 24.63 15 58.9 57 6.7 44
10:35 1005 29.68 834 24.63 14.7 58.5 61 7.3 45.1
10:40 1005 29.68 834 24.63 14.1 57.5 65 7.7 45.9
10:45 1005 29.68 834 24.63 14.3 57.7 64 7.5 45.5
10:50 1004 29.65 833 24.6 14.5 58.1 63 7.5 45.6
10:55 1004 29.65 833 24.6 14.1 57.5 64 7.4 45.3
11:00 1004 29.65 834 24.63 14.1 57.4 64 7.5 45.5
11:05 1004 29.65 834 24.63 14.3 57.8 66 8 46.4
11:10 1004 29.65 833 24.6 14 57.1 67 8 46.4
11:15 1004 29.65 833 24.6 13.3 56 69 7.8 46.1
11:20 1004 29.65 833 24.6 13.2 55.8 69 7.7 45.9
11:25 1004 29.65 833 24.6 13.4 56.2 70 8.1 46.5
11:30 1004 29.65 833 24.6 13.2 55.8 70 8 46.4
11:35 1004 29.65 833 24.6 13.2 55.8 67 7.2 45
11:40 1005 29.68 834 24.63 12.9 55.2 70 7.5 45.6
11:45 1005 29.68 835 24.66 12.3 54.1 78 8.6 47.4
11:50 1006 29.71 835 24.66 10.8 51.5 72 6.1 42.9
11:55 1006 29.71 835 24.66 9.5 49 79 6 42.8
12:00 1006 29.71 835 24.66 8.9 48 84 6.4 43.4
12:05 1006 29.71 835 24.66 8.7 47.7 87 6.7 44.1
12:10 1006 29.71 835 24.66 8.7 47.6 89 6.9 44.4
12:15 1006 29.71 836 24.69 8.3 46.9 86 6.1 42.9
12:20 1007 29.74 836 24.69 7.8 46.1 85 5.5 41.9
12:25 1007 29.74 836 24.69 7.3 45.1 87 5.2 41.3
12:30 1007 29.74 836 24.69 7.1 44.7 89 5.3 41.6
12:35 1007 29.74 837 24.72 7.1 44.8 90 5.5 42
12:40 1008 29.77 837 24.72 7.1 44.7 91 5.8 42.4
12:45 1008 29.77 837 24.72 6.7 44.1 90 5.2 41.3
12:50 1008 29.77 837 24.72 5.6 42.1 90 4 39.3
12:55 1008 29.77 838 24.75 4.8 40.7 92 3.6 38.6
13:00 1009 29.8 838 24.75 4.5 40.2 94 3.6 38.5
13:05 1009 29.8 838 24.75 4.5 40 95 3.7 38.7
13:10 1009 29.8 838 24.75 4.4 40 95 3.7 38.6
13:15 1010 29.83 839 24.78 4.1 39.4 95 3.4 38.1
13:20 1010 29.83 839 24.78 4 39.3 95 3.3 38
13:25 1010 29.83 839 24.78 4 39.2 95 3.3 37.9
13:30 1010 29.83 840 24.81 4 39.3 94 3.2 37.7
13:35 1010 29.83 840 24.81 3.9 39.1 94 3 37.4
13:40 1011 29.85 840 24.81 3.7 38.6 94 2.8 37
13:45 1011 29.85 840 24.81 3.1 37.5 95 2.3 36.1
13:50 1011 29.85 840 24.81 2.4 36.3 96 1.8 35.2
13:55 1011 29.85 840 24.81 1.9 35.4 96 1.4 34.5
14:00 1011 29.85 841 24.83 1.7 35 97 1.3 34.3
14:05 1011 29.85 841 24.83 1.5 34.7 98 1.2 34.2
14:10 1011 29.85 841 24.83 1.6 34.9 99 1.4 34.5
14:15 1011 29.85 840 24.81 1.8 35.2 99 1.6 34.8
14:20 1011 29.85 840 24.81 1.6 34.9 98 1.4 34.4
14:25 1011 29.85 840 24.81 1.1 34 100 1.1 33.9
14:30 1011 29.85 840 24.81 1.2 34.1 100 1.2 34.1
14:35 1011 29.85 840 24.81 1.6 34.8 100 1.6 34.8
14:40 1011 29.85 840 24.81 2 35.6 100 2 35.5
14:45 1011 29.85 840 24.81 2.4 36.2 99 2.2 36
14:50 1011 29.85 840 24.81 2.5 36.6 99 2.3 36.2
14:55 1011 29.85 840 24.81 2.7 36.9 98 2.4 36.4
15:00 1011 29.85 840 24.81 3 37.5 97 2.6 36.7
15:05 1011 29.85 840 24.81 3 37.4 97 2.5 36.6
15:10 1011 29.85 840 24.81 3.4 38 96 2.8 37
15:15 1011 29.85 840 24.81 3.5 38.4 94 2.7 36.9
15:20 1011 29.85 840 24.81 3.6 38.4 91 2.2 36
15:25 1011 29.85 840 24.81 3.9 39 89 2.3 36.1
15:30 1011 29.85 840 24.81 4.2 39.5 89 2.6 36.6
15:35 1011 29.85 840 24.81 5 41 86 2.9 37.2
15:40 1011 29.85 840 24.81 5.3 41.5 85 3 37.4
15:45 1011 29.85 841 24.83 5.5 41.9 83 2.9 37.1
15:50 1011 29.85 841 24.83 5.7 42.2 80 2.5 36.5
15:55 1012 29.88 841 24.83 6.1 43 79 2.8 37
16:00 1012 29.88 841 24.83 6.5 43.7 77 2.8 37.1
16:05 1012 29.88 841 24.83 6.4 43.6 75 2.4 36.3
16:10 1011 29.85 841 24.83 6.3 43.3 77 2.5 36.6
16:15 1011 29.85 841 24.83 6.2 43.1 74 1.9 35.5
16:20 1011 29.85 841 24.83 5.9 42.6 76 1.9 35.4
16:25 1011 29.85 841 24.83 6.3 43.4 74 2 35.5
16:30 1011 29.85 841 24.83 6.3 43.4 72 1.7 35
16:35 1011 29.85 841 24.83 6.3 43.4 71 1.5 34.6
16:40 1011 29.85 841 24.83 6.5 43.7 68 1.1 33.9
16:45 1011 29.85 840 24.81 7 44.7 67 1.4 34.4
16:50 1011 29.85 841 24.83 7.4 45.3 66 1.5 34.8
16:55 1011 29.85 840 24.81 7.7 45.8 64 1.4 34.5
17:00 1011 29.85 840 24.81 7.9 46.3 62 1.2 34.2
17:05 1011 29.85 840 24.81 8 46.5 62 1.3 34.3
17:10 1011 29.85 840 24.81 9 48.1 56 0.8 33.4
17:15 1011 29.85 840 24.81 8.9 48 55 0.5 32.9
17:20 1011 29.85 840 24.81 9.5 49 53 0.5 32.9
17:25 1011 29.85 840 24.81 9.8 49.7 49 -0.2 31.6
17:30 1011 29.85 840 24.81 9 48.2 49 -1.2 29.9
17:35 1011 29.85 840 24.81 8.7 47.6 50 -1.1 30.1
17:40 1011 29.85 840 24.81 8.7 47.7 52 -0.5 31.2
17:45 1011 29.85 840 24.81 8.6 47.5 51 -0.9 30.4
17:50 1011 29.85 840 24.81 9 48.1 51 -0.7 30.7
17:55 1011 29.85 840 24.81 9.4 49 48 -1.1 30
18:00 1011 29.85 840 24.81 9.4 48.8 43 -2.7 27.1
18:05 1011 29.85 840 24.81 9.6 49.3 40 -3.3 26
18:10 1011 29.85 840 24.81 9.7 49.5 39 -3.5 25.6
18:15 1011 29.85 840 24.81 9.5 49.1 41 -3 26.5
18:20 1011 29.85 840 24.81 8.7 47.7 45 -2.6 27.3
18:25 1011 29.85 840 24.81 8.4 47.1 45 -3 26.6
18:30 1011 29.85 840 24.81 8.6 47.5 43 -3.3 26
18:35 1011 29.85 840 24.81 8.7 47.6 42 -3.5 25.6
18:40 1011 29.85 840 24.81 8.4 47 42 -3.8 25.2
18:45 1011 29.85 840 24.81 8.4 47 40 -4.3 24.3
18:50 1011 29.85 840 24.81 8.2 46.8 42 -3.9 24.9
18:55 1011 29.85 840 24.81 8.4 47.1 40 -4.4 24.1
19:00 1011 29.85 840 24.81 8.6 47.4 37 -5.3 22.4
19:05 1011 29.85 840 24.81 8.6 47.4 38 -4.8 23.3
19:10 1011 29.85 840 24.81 8.6 47.4 37 -5.2 22.7
19:15 1011 29.85 840 24.81 8.5 47.3 40 -4.4 24.2
19:20 1011 29.85 840 24.81 8.1 46.6 44 -3.5 25.6
19:25 1011 29.85 840 24.81 7.7 45.8 47 -3 26.6
19:30 1011 29.85 840 24.81 7.5 45.5 47 -3 26.5
19:35 1011 29.85 840 24.81 7.6 45.7 50 -2.1 28.3
19:40 1011 29.85 840 24.81 7.6 45.6 52 -1.6 29.2
19:45 1011 29.85 840 24.81 7.5 45.6 48 -2.8 27
19:50 1011 29.85 840 24.81 7.6 45.7 49 -2.3 27.9
19:55 1011 29.85 840 24.81 7.6 45.8 52 -1.5 29.3
20:00 1011 29.85 840 24.81 7.5 45.5 58 -0.2 31.6
20:05 1011 29.85 840 24.81 7.1 44.9 61 0.1 32.2
20:10 1011 29.85 840 24.81 7.1 44.8 59 -0.4 31.3
20:15 1011 29.85 840 24.81 7.4 45.4 46 -3.3 26.1
20:20 1011 29.85 840 24.81 7.8 46 42 -4.2 24.4
20:25 1011 29.85 840 24.81 7.8 46 42 -4.3 24.3
20:30 1011 29.85 840 24.81 7.5 45.6 43 -4.3 24.2
20:35 1011 29.85 840 24.81 7.2 45 43 -4.5 23.9
20:40 1011 29.85 840 24.81 7 44.5 44 -4.5 23.9
20:45 1011 29.85 840 24.81 6.8 44.2 45 -4.3 24.3
20:50 1011 29.85 840 24.81 6.6 43.8 46 -4.3 24.2
20:55 1011 29.85 840 24.81 6.3 43.4 48 -4 24.9
21:00 1011 29.85 841 24.83 6.2 43.1 49 -3.7 25.4
21:05 1011 29.85 841 24.83 6 42.8 51 -3.5 25.7
21:10 1011 29.85 841 24.83 5.8 42.4 53 -3 26.6
21:15 1011 29.85 841 24.83 5.3 41.5 54 -3.3 26.1
21:20 1011 29.85 841 24.83 5.2 41.4 53 -3.5 25.7
21:25 1011 29.85 841 24.83 5.2 41.4 53 -3.6 25.6
21:30 1011 29.85 841 24.83 5.2 41.4 52 -3.9 24.9
21:35 1011 29.85 841 24.83 5.3 41.5 51 -4 24.8
21:40 1011 29.85 841 24.83 5.1 41.2 54 -3.5 25.6
21:45 1011 29.85 841 24.83 4.5 40.2 61 -2.3 27.9
21:50 1011 29.85 841 24.83 3.7 38.7 67 -1.8 28.8
21:55 1011 29.85 841 24.83 3.1 37.6 71 -1.6 29.1
22:00 1011 29.85 841 24.83 2.9 37.3 72 -1.6 29.1
22:05 1012 29.88 841 24.83 3 37.3 72 -1.7 29
22:10 1012 29.88 841 24.83 2.9 37.2 74 -1.3 29.6
22:15 1012 29.88 841 24.83 2.7 36.9 74 -1.5 29.3
22:20 1012 29.88 841 24.83 3 37.3 73 -1.4 29.4
22:25 1012 29.88 841 24.83 3.1 37.7 72 -1.4 29.6
22:30 1012 29.88 841 24.83 3.3 37.9 72 -1.4 29.5
22:35 1012 29.88 841 24.83 3.3 37.9 72 -1.4 29.5
22:40 1012 29.88 841 24.83 3.1 37.6 72 -1.4 29.5
22:45 1012 29.88 841 24.83 2.7 36.9 75 -1.2 29.8
22:50 1012 29.88 841 24.83 2.2 36 78 -1.2 29.8
22:55 1012 29.88 841 24.83 2.1 35.8 80 -1.1 30
23:00 1012 29.88 841 24.83 2.4 36.4 78 -1.1 30
23:05 1012 29.88 841 24.83 2.8 37 77 -0.9 30.4
23:10 1012 29.88 841 24.83 3.1 37.6 75 -0.8 30.5
23:15 1012 29.88 841 24.83 3 37.5 77 -0.7 30.8
23:20 1012 29.88 841 24.83 2.8 37 78 -0.7 30.8
23:25 1012 29.88 841 24.83 2.5 36.6 80 -0.6 30.8
23:30 1012 29.88 841 24.83 2.3 36.2 81 -0.7 30.8
23:35 1011 29.85 841 24.83 2.1 35.8 82 -0.6 30.9
23:40 1012 29.88 841 24.83 2.1 35.8 82 -0.7 30.8
23:45 1012 29.88 841 24.83 2.2 36 80 -0.8 30.5
23:50 1012 29.88 841 24.83 2.3 36.2 79 -0.9 30.4
23:55 1012 29.88 841 24.83 2.5 36.5 78 -0.9 30.4
24:00 1012 29.88 841 24.83 2.6 36.7 78 -0.9 30.4